Time;durP1;ratioP1;P1;durP2;ratioP2;P2;SDS_P1;SDS_P2;PMS_P1;PMS_P2;Temp;Humidity;BMP_temperature;BMP_pressure;BME280_temperature;BME280_humidity;BME280_pressure;Samples;Min_cycle;Max_cycle;Signal;HPM_P1;HPM_P2
2023/12/01 00:01:29;;;;;;;7.30;2.63;;;1.60;95.10;;;;;;6068578;23;20472;-84
2023/12/01 00:03:57;;;;;;;7.38;2.92;;;1.60;95.00;;;;;;6069211;23;20003;-84
2023/12/01 00:06:23;;;;;;;8.75;3.30;;;1.70;95.00;;;;;;6069589;23;20448;-82
2023/12/01 00:08:48;;;;;;;8.52;3.40;;;1.70;94.80;;;;;;6071370;23;20022;-82
2023/12/01 00:11:14;;;;;;;6.70;3.10;;;1.70;94.70;;;;;;6069689;23;20373;-83
2023/12/01 00:13:40;;;;;;;8.93;3.25;;;1.70;94.70;;;;;;6070199;23;20006;-84
2023/12/01 00:16:06;;;;;;;12.73;3.78;;;1.60;94.70;;;;;;6071245;23;19999;-84
2023/12/01 00:18:35;;;;;;;10.23;4.15;;;1.50;94.70;;;;;;6067581;23;20010;-82
2023/12/01 00:21:04;;;;;;;12.77;4.70;;;1.70;94.90;;;;;;6066370;23;20007;-81
2023/12/01 00:23:37;;;;;;;13.02;4.40;;;1.50;94.90;;;;;;6066977;23;19999;-82
2023/12/01 00:26:03;;;;;;;8.88;3.42;;;1.50;95.00;;;;;;6066644;23;20440;-80
2023/12/01 00:28:29;;;;;;;12.93;4.72;;;1.50;95.10;;;;;;6066568;23;19999;-81
2023/12/01 00:30:57;;;;;;;9.43;3.13;;;1.50;95.20;;;;;;6066482;23;20077;-82
2023/12/01 00:33:27;;;;;;;11.70;4.28;;;1.60;95.10;;;;;;6068005;23;20038;-82
2023/12/01 00:35:55;;;;;;;10.95;3.58;;;1.70;95.10;;;;;;6067373;23;20332;-81
2023/12/01 00:38:27;;;;;;;12.00;3.90;;;1.60;94.90;;;;;;6066685;23;20007;-81
2023/12/01 00:40:58;;;;;;;14.57;5.00;;;1.60;94.90;;;;;;6067333;23;20017;-82
2023/12/01 00:43:24;;;;;;;16.35;5.43;;;1.60;94.90;;;;;;6066930;23;20006;-81
2023/12/01 00:45:50;;;;;;;15.27;5.00;;;1.60;94.90;;;;;;6066658;23;20007;-83
2023/12/01 00:48:16;;;;;;;10.32;3.72;;;1.40;95.00;;;;;;6066742;23;20038;-81
2023/12/01 00:50:47;;;;;;;11.82;4.13;;;1.50;95.30;;;;;;6066680;23;20108;-83
2023/12/01 00:53:13;;;;;;;10.75;3.75;;;1.50;95.20;;;;;;6065507;23;20003;-79
2023/12/01 00:55:39;;;;;;;13.13;4.30;;;1.50;95.40;;;;;;6067729;23;19999;-83
2023/12/01 00:58:04;;;;;;;9.60;3.83;;;1.60;95.10;;;;;;6066758;23;20003;-84
2023/12/01 01:00:31;;;;;;;11.70;4.30;;;1.50;94.90;;;;;;6068213;23;20074;-82
2023/12/01 01:03:08;;;;;;;15.32;5.15;;;1.40;94.80;;;;;;6066540;23;20003;-82
2023/12/01 01:05:39;;;;;;;14.60;5.13;;;1.30;95.00;;;;;;6068452;23;20011;-80
2023/12/01 01:08:22;;;;;;;11.35;4.05;;;1.20;95.30;;;;;;6075534;23;20023;-85
2023/12/01 01:11:03;;;;;;;10.73;3.50;;;1.40;95.40;;;;;;6094797;23;20019;-86
2023/12/01 01:13:29;;;;;;;12.27;3.60;;;1.50;95.40;;;;;;6087758;23;20018;-80
2023/12/01 01:16:08;;;;;;;12.05;3.67;;;1.50;95.30;;;;;;6065112;23;20002;-83
2023/12/01 01:19:03;;;;;;;11.68;4.10;;;1.60;95.30;;;;;;6065468;23;20055;-83
2023/12/01 01:21:47;;;;;;;10.40;3.83;;;1.60;95.20;;;;;;6069859;23;20483;-81
2023/12/01 01:24:21;;;;;;;9.95;3.70;;;1.70;95.20;;;;;;6069782;23;20010;-81
2023/12/01 01:27:31;;;;;;;11.73;3.70;;;1.70;94.90;;;;;;6070659;23;20348;-84
2023/12/01 01:29:57;;;;;;;11.95;4.13;;;1.70;94.90;;;;;;6073009;23;20084;-82
2023/12/01 01:32:22;;;;;;;18.13;5.30;;;1.70;94.90;;;;;;6073358;23;20019;-84
2023/12/01 01:34:48;;;;;;;13.43;5.15;;;1.70;94.90;;;;;;6088706;23;20022;-82
2023/12/01 01:37:16;;;;;;;15.25;5.20;;;1.60;95.00;;;;;;6070653;23;20011;-81
2023/12/01 01:39:45;;;;;;;16.27;5.10;;;1.50;95.10;;;;;;6070811;23;20082;-81
2023/12/01 01:42:10;;;;;;;12.73;4.95;;;1.60;95.10;;;;;;6071329;23;20042;-80
2023/12/01 01:44:36;;;;;;;11.85;3.92;;;1.50;95.10;;;;;;6072186;23;19999;-82
2023/12/01 01:47:02;;;;;;;13.52;4.40;;;1.70;95.10;;;;;;6070112;23;20373;-83
2023/12/01 01:49:28;;;;;;;13.57;4.60;;;1.60;95.10;;;;;;6069928;23;20014;-81
2023/12/01 01:51:55;;;;;;;15.60;4.10;;;1.70;95.30;;;;;;6073474;23;19983;-84
2023/12/01 01:54:24;;;;;;;16.48;4.88;;;1.70;95.20;;;;;;6071241;23;20436;-82
2023/12/01 01:56:51;;;;;;;16.48;5.60;;;1.60;95.10;;;;;;6078105;23;19999;-85
2023/12/01 01:59:21;;;;;;;13.73;4.10;;;1.60;95.10;;;;;;6079976;23;20002;-80
2023/12/01 02:01:51;;;;;;;24.27;7.25;;;1.60;95.30;;;;;;6078108;23;20058;-84
2023/12/01 02:04:17;;;;;;;16.33;5.15;;;1.50;95.10;;;;;;6076890;23;20307;-84
2023/12/01 02:06:45;;;;;;;20.60;5.85;;;1.50;95.30;;;;;;6069962;23;20065;-82
2023/12/01 02:09:14;;;;;;;16.00;5.40;;;1.50;95.30;;;;;;6068103;23;20066;-82
2023/12/01 02:11:40;;;;;;;22.00;7.18;;;1.50;95.40;;;;;;6067763;23;20003;-83
2023/12/01 02:14:06;;;;;;;21.10;6.68;;;1.50;95.30;;;;;;6065214;23;20082;-84
2023/12/01 02:16:31;;;;;;;23.80;6.93;;;1.50;95.40;;;;;;6067639;23;20007;-84
2023/12/01 02:18:58;;;;;;;21.63;6.28;;;1.40;95.40;;;;;;6067650;23;20013;-81
2023/12/01 02:21:26;;;;;;;16.50;5.35;;;1.50;95.60;;;;;;6070277;23;20007;-85
2023/12/01 02:23:53;;;;;;;12.07;4.30;;;1.60;95.70;;;;;;6069208;23;20101;-83
2023/12/01 02:26:19;;;;;;;16.45;5.03;;;1.70;95.60;;;;;;6069571;23;20007;-81
2023/12/01 02:28:46;;;;;;;14.43;4.93;;;1.60;95.30;;;;;;6069572;23;20266;-81
2023/12/01 02:31:11;;;;;;;19.35;5.63;;;1.70;95.30;;;;;;6069750;23;20003;-82
2023/12/01 02:33:37;;;;;;;13.52;5.03;;;1.70;95.40;;;;;;6069727;23;20089;-82
2023/12/01 02:36:06;;;;;;;12.63;4.93;;;1.80;95.40;;;;;;6070145;23;19999;-80
2023/12/01 02:38:33;;;;;;;13.65;4.65;;;1.80;95.30;;;;;;6070003;23;20058;-84
2023/12/01 02:40:58;;;;;;;10.75;3.70;;;1.80;95.30;;;;;;6071283;23;20007;-81
2023/12/01 02:43:24;;;;;;;11.05;3.47;;;1.90;95.30;;;;;;6070285;23;20463;-82
2023/12/01 02:45:50;;;;;;;10.80;3.47;;;2.00;95.30;;;;;;6069117;23;20014;-83
2023/12/01 02:48:16;;;;;;;11.60;3.80;;;2.10;95.10;;;;;;6068944;23;20015;-80
2023/12/01 02:50:42;;;;;;;10.90;3.50;;;2.10;95.10;;;;;;6071380;23;20013;-80
2023/12/01 02:55:43;;;;;;;16.25;5.05;;;2.20;94.90;;;;;;6125843;23;20033;-79
2023/12/01 02:58:09;;;;;;;11.20;4.10;;;2.20;94.80;;;;;;6097850;23;20372;-77
2023/12/01 03:00:35;;;;;;;11.57;4.22;;;2.20;94.80;;;;;;6097409;23;20427;-79
2023/12/01 03:03:01;;;;;;;12.57;4.18;;;2.20;94.90;;;;;;6124753;23;20042;-80
2023/12/01 03:05:26;;;;;;;14.52;4.85;;;2.20;94.80;;;;;;6121756;23;20013;-78
2023/12/01 03:07:52;;;;;;;8.52;3.97;;;2.20;94.70;;;;;;6098137;23;20013;-78
2023/12/01 03:10:17;;;;;;;12.60;4.35;;;2.20;94.80;;;;;;6098093;23;20014;-78
2023/12/01 03:12:44;;;;;;;13.52;5.05;;;2.20;94.70;;;;;;6124312;23;20086;-79
2023/12/01 03:15:12;;;;;;;13.32;4.40;;;2.20;94.80;;;;;;6097117;23;20012;-78
2023/12/01 03:17:38;;;;;;;10.25;4.28;;;2.30;94.80;;;;;;6123290;23;20029;-77
2023/12/01 03:20:08;;;;;;;14.07;3.65;;;2.30;94.80;;;;;;6098390;23;20440;-79
2023/12/01 03:22:34;;;;;;;12.20;3.75;;;2.40;95.00;;;;;;6122671;23;20006;-78
2023/12/01 03:24:59;;;;;;;10.45;3.70;;;2.40;94.70;;;;;;6096735;23;20009;-79
2023/12/01 03:27:25;;;;;;;10.88;3.92;;;2.50;94.60;;;;;;6124766;23;20003;-78
2023/12/01 03:29:52;;;;;;;9.75;3.40;;;2.40;94.50;;;;;;6099569;23;20006;-80
2023/12/01 03:32:20;;;;;;;8.75;3.67;;;2.50;94.70;;;;;;6099907;23;20324;-79
2023/12/01 03:34:46;;;;;;;10.85;3.63;;;2.50;94.40;;;;;;6099014;23;20056;-78
2023/12/01 03:37:12;;;;;;;9.52;3.63;;;2.50;94.50;;;;;;6098595;23;20045;-80
2023/12/01 03:39:37;;;;;;;9.55;3.47;;;2.50;94.40;;;;;;6097094;23;20012;-78
2023/12/01 03:42:04;;;;;;;9.70;3.50;;;2.60;94.40;;;;;;6123345;23;20002;-79
2023/12/01 03:44:29;;;;;;;8.57;3.22;;;2.60;94.30;;;;;;6123056;23;20502;-79
2023/12/01 03:46:55;;;;;;;8.88;3.33;;;2.60;94.30;;;;;;6123424;23;20002;-78
2023/12/01 03:49:20;;;;;;;10.95;4.10;;;2.70;94.30;;;;;;6097778;23;20066;-79
2023/12/01 03:51:46;;;;;;;11.45;4.38;;;2.70;94.20;;;;;;6124076;23;20010;-77
2023/12/01 03:54:12;;;;;;;12.88;3.97;;;2.70;94.10;;;;;;6124786;23;20457;-79
2023/12/01 03:56:38;;;;;;;9.48;3.85;;;2.70;94.10;;;;;;6124404;23;20033;-78
2023/12/01 03:59:09;;;;;;;9.02;3.42;;;2.70;94.20;;;;;;6123749;23;20002;-80
2023/12/01 04:01:37;;;;;;;7.43;3.30;;;2.70;94.10;;;;;;6098943;23;20006;-80
2023/12/01 04:04:04;;;;;;;10.50;3.70;;;2.70;94.10;;;;;;6098286;23;20016;-79
2023/12/01 04:06:30;;;;;;;13.35;4.40;;;2.70;94.10;;;;;;6124974;23;20008;-78
2023/12/01 04:08:55;;;;;;;14.07;4.90;;;2.60;94.10;;;;;;6122445;23;20001;-79
2023/12/01 04:11:21;;;;;;;10.73;3.97;;;2.70;94.00;;;;;;6123377;23;20005;-80
2023/12/01 04:13:47;;;;;;;10.10;4.10;;;2.70;93.90;;;;;;6096334;23;20323;-77
2023/12/01 04:16:12;;;;;;;12.10;4.40;;;2.70;94.00;;;;;;6123957;23;20026;-79
2023/12/01 04:18:38;;;;;;;10.45;3.80;;;2.60;94.00;;;;;;6097093;23;20105;-77
2023/12/01 04:21:08;;;;;;;10.15;3.58;;;2.60;94.00;;;;;;6099064;23;20067;-80
2023/12/01 04:23:34;;;;;;;9.95;3.70;;;2.70;94.00;;;;;;6101519;23;20002;-79
2023/12/01 04:26:00;;;;;;;12.07;4.30;;;2.70;93.90;;;;;;6129577;23;20005;-78
2023/12/01 04:28:26;;;;;;;10.23;4.07;;;2.60;94.10;;;;;;6104361;23;20016;-80
2023/12/01 04:30:52;;;;;;;10.48;3.90;;;2.60;93.90;;;;;;6099288;23;20629;-78
2023/12/01 04:33:18;;;;;;;13.73;4.53;;;2.60;94.00;;;;;;6123776;23;20458;-80
2023/12/01 04:35:43;;;;;;;11.88;4.38;;;2.60;93.90;;;;;;6122695;23;19998;-79
2023/12/01 04:38:09;;;;;;;13.95;4.88;;;2.60;94.00;;;;;;6099879;23;20388;-79
2023/12/01 04:40:36;;;;;;;11.32;4.18;;;2.60;94.00;;;;;;6100273;23;20658;-80
2023/12/01 04:43:03;;;;;;;13.68;4.57;;;2.60;94.20;;;;;;6100029;23;20343;-79
2023/12/01 04:45:32;;;;;;;12.43;4.50;;;2.60;94.00;;;;;;6132606;23;20001;-78
2023/12/01 04:47:58;;;;;;;12.07;4.65;;;2.60;94.00;;;;;;6134215;23;20014;-79
2023/12/01 04:50:28;;;;;;;13.02;4.57;;;2.50;94.00;;;;;;6127050;23;20009;-79
2023/12/01 04:52:58;;;;;;;13.77;5.03;;;2.60;94.00;;;;;;6127840;23;20005;-80
2023/12/01 04:55:26;;;;;;;15.27;5.85;;;2.60;94.00;;;;;;6126173;23;20013;-79
2023/12/01 04:57:51;;;;;;;12.07;4.85;;;2.60;94.00;;;;;;6100316;23;20006;-77
2023/12/01 05:00:25;;;;;;;11.85;4.18;;;2.60;94.00;;;;;;6100231;23;20351;-79
2023/12/01 05:02:55;;;;;;;12.68;4.25;;;2.60;93.90;;;;;;6125979;23;20006;-78
2023/12/01 05:05:22;;;;;;;12.48;4.85;;;2.60;93.90;;;;;;6099330;23;20014;-78
2023/12/01 05:07:52;;;;;;;14.00;4.90;;;2.60;93.90;;;;;;6099334;23;20012;-81
2023/12/01 05:10:22;;;;;;;11.15;4.40;;;2.60;93.90;;;;;;6126001;23;20001;-78
2023/12/01 05:12:49;;;;;;;13.02;4.45;;;2.60;93.90;;;;;;6098945;23;20005;-80
2023/12/01 05:15:20;;;;;;;9.70;3.95;;;2.50;93.80;;;;;;6099523;23;20034;-78
2023/12/01 05:17:48;;;;;;;10.90;3.80;;;2.60;94.00;;;;;;6099708;23;20006;-80
2023/12/01 05:20:15;;;;;;;12.25;4.45;;;2.60;94.00;;;;;;6101621;23;20002;-78
2023/12/01 05:22:42;;;;;;;9.80;3.17;;;2.60;94.00;;;;;;6099743;23;20359;-80
2023/12/01 05:25:13;;;;;;;11.65;3.83;;;2.60;94.00;;;;;;6124037;23;20006;-79
2023/12/01 05:27:46;;;;;;;12.27;4.18;;;2.60;93.90;;;;;;6126144;23;20396;-80
2023/12/01 05:30:14;;;;;;;11.18;3.97;;;2.60;94.00;;;;;;6123692;23;20021;-79
2023/12/01 05:32:44;;;;;;;11.52;3.90;;;2.60;94.00;;;;;;6126063;23;20039;-80
2023/12/01 05:35:11;;;;;;;10.07;4.13;;;2.70;94.00;;;;;;6099188;23;20012;-80
2023/12/01 05:37:39;;;;;;;12.25;4.03;;;2.70;94.30;;;;;;6123784;23;20013;-78
2023/12/01 05:40:09;;;;;;;12.73;4.60;;;2.70;93.90;;;;;;6097226;23;20021;-78
2023/12/01 05:42:36;;;;;;;10.48;4.10;;;2.70;93.90;;;;;;6125464;23;20028;-78
2023/12/01 05:45:04;;;;;;;10.95;4.45;;;2.70;93.90;;;;;;6099507;23;20010;-80
2023/12/01 05:47:30;;;;;;;10.18;4.00;;;2.70;93.90;;;;;;6098529;23;20014;-83
2023/12/01 05:49:55;;;;;;;10.18;4.20;;;2.70;93.90;;;;;;6099179;23;20060;-81
2023/12/01 05:52:21;;;;;;;11.15;3.78;;;2.70;93.90;;;;;;6098529;23;20152;-78
2023/12/01 05:54:48;;;;;;;9.48;3.53;;;2.70;93.90;;;;;;6093571;23;20094;-79
2023/12/01 05:57:14;;;;;;;16.25;5.82;;;2.70;93.90;;;;;;6095230;23;20101;-80
2023/12/01 05:59:42;;;;;;;19.88;6.30;;;2.60;93.90;;;;;;6095411;23;20450;-80
2023/12/01 06:02:11;;;;;;;14.45;5.00;;;2.40;93.90;;;;;;6094374;23;20062;-80
2023/12/01 06:04:38;;;;;;;14.38;5.45;;;2.30;94.10;;;;;;6095010;23;20006;-78
2023/12/01 06:07:07;;;;;;;12.23;4.53;;;2.20;94.30;;;;;;6092369;23;20134;-78
2023/12/01 06:09:34;;;;;;;11.30;4.45;;;2.30;94.40;;;;;;6094668;23;20348;-79
2023/12/01 06:11:59;;;;;;;12.07;4.05;;;2.40;94.40;;;;;;6089737;23;20006;-79
2023/12/01 06:14:25;;;;;;;10.20;4.05;;;2.40;94.40;;;;;;6091154;23;20013;-79
2023/12/01 06:16:50;;;;;;;11.07;4.03;;;2.40;94.40;;;;;;6092245;23;20003;-79
2023/12/01 06:19:17;;;;;;;11.13;3.95;;;2.50;94.30;;;;;;6093784;23;20623;-86
2023/12/01 06:21:43;;;;;;;11.63;4.45;;;2.50;94.30;;;;;;6096940;23;20042;-81
2023/12/01 06:24:08;;;;;;;14.00;4.95;;;2.50;94.10;;;;;;6094427;23;20009;-81
2023/12/01 06:26:35;;;;;;;14.80;5.32;;;2.30;94.10;;;;;;6095400;23;20010;-82
2023/12/01 06:29:02;;;;;;;14.50;5.53;;;2.30;94.10;;;;;;6094704;23;20002;-82
2023/12/01 06:31:27;;;;;;;15.90;5.88;;;2.20;94.10;;;;;;6094170;23;20093;-80
2023/12/01 06:33:53;;;;;;;12.05;4.60;;;2.10;94.30;;;;;;6091506;23;20030;-80
2023/12/01 06:36:19;;;;;;;15.38;5.53;;;2.10;94.40;;;;;;6096305;23;20002;-80
2023/12/01 06:38:44;;;;;;;16.08;6.13;;;2.00;94.30;;;;;;6101380;23;20057;-81
2023/12/01 06:41:10;;;;;;;14.93;6.43;;;2.00;94.60;;;;;;6104151;23;20018;-82
2023/12/01 06:43:36;;;;;;;12.80;4.93;;;2.00;94.60;;;;;;6097816;23;20006;-81
2023/12/01 06:46:02;;;;;;;17.60;7.55;;;2.00;94.40;;;;;;6095286;23;20012;-82
2023/12/01 06:48:27;;;;;;;13.77;5.40;;;1.90;94.20;;;;;;6094523;23;20002;-82
2023/12/01 06:50:53;;;;;;;12.40;5.13;;;1.90;94.70;;;;;;6094862;23;20011;-80
2023/12/01 06:53:18;;;;;;;13.25;4.70;;;2.00;94.60;;;;;;6095954;23;20010;-81
2023/12/01 06:55:44;;;;;;;12.52;5.10;;;2.00;94.40;;;;;;6099233;23;20009;-81
2023/12/01 06:58:09;;;;;;;12.98;4.90;;;2.00;94.30;;;;;;6125467;23;20080;-82
2023/12/01 07:00:36;;;;;;;13.20;4.90;;;2.00;94.30;;;;;;6121483;23;20751;-81
2023/12/01 07:03:04;;;;;;;13.88;5.15;;;1.90;94.00;;;;;;6099140;23;20005;-79
2023/12/01 07:05:32;;;;;;;13.00;5.15;;;1.80;94.00;;;;;;6097570;23;20006;-80
2023/12/01 07:07:58;;;;;;;10.10;4.13;;;1.80;94.20;;;;;;6124736;23;20092;-80
2023/12/01 07:10:28;;;;;;;10.20;3.80;;;1.80;94.20;;;;;;6124702;23;20526;-81
2023/12/01 07:12:53;;;;;;;10.75;4.40;;;1.90;94.20;;;;;;6102923;23;20471;-82
2023/12/01 07:15:20;;;;;;;8.13;3.17;;;1.90;94.10;;;;;;6103271;23;20009;-78
2023/12/01 07:17:50;;;;;;;7.43;3.30;;;1.90;94.10;;;;;;6100906;23;20002;-82
2023/12/01 07:20:18;;;;;;;9.32;4.18;;;1.90;94.00;;;;;;6102337;23;20006;-80
2023/12/01 07:22:44;;;;;;;10.27;4.20;;;1.90;94.00;;;;;;6122211;23;20002;-81
2023/12/01 07:25:11;;;;;;;9.38;3.53;;;1.80;93.90;;;;;;6097018;23;20010;-78
2023/12/01 07:27:40;;;;;;;6.82;3.13;;;1.90;93.90;;;;;;6124515;23;20013;-81
2023/12/01 07:30:06;;;;;;;7.18;3.30;;;1.80;93.80;;;;;;6125879;23;20012;-81
2023/12/01 07:32:32;;;;;;;8.77;3.30;;;1.80;93.80;;;;;;6098628;23;20025;-81
2023/12/01 07:34:58;;;;;;;8.23;3.05;;;1.80;93.80;;;;;;6097456;23;19998;-81
2023/12/01 07:37:24;;;;;;;7.15;3.15;;;1.80;93.70;;;;;;6097822;23;20450;-81
2023/12/01 07:39:49;;;;;;;8.80;3.55;;;1.70;93.70;;;;;;6101976;23;20078;-81
2023/12/01 07:42:16;;;;;;;5.72;2.60;;;1.80;93.70;;;;;;6109129;23;20022;-81
2023/12/01 07:44:41;;;;;;;6.63;2.70;;;1.80;93.70;;;;;;6139404;23;20009;-80
2023/12/01 07:47:11;;;;;;;8.98;3.30;;;1.80;93.70;;;;;;6102273;23;20016;-81
2023/12/01 07:49:37;;;;;;;10.30;3.50;;;1.80;93.60;;;;;;6123040;23;20010;-82
2023/12/01 07:52:06;;;;;;;8.50;3.45;;;1.70;93.50;;;;;;6098362;23;20040;-79
2023/12/01 07:54:33;;;;;;;8.68;3.30;;;1.70;93.60;;;;;;6094368;23;20007;-81
2023/12/01 07:56:58;;;;;;;10.75;3.80;;;1.60;93.60;;;;;;6094225;23;19998;-79
2023/12/01 07:59:24;;;;;;;8.77;3.83;;;1.60;93.70;;;;;;6094057;23;20497;-79
2023/12/01 08:01:49;;;;;;;6.78;3.42;;;1.60;93.70;;;;;;6091395;23;20325;-81
2023/12/01 08:04:15;;;;;;;7.43;3.20;;;1.60;93.60;;;;;;6093059;23;20039;-79
2023/12/01 08:06:41;;;;;;;9.18;3.58;;;1.60;93.60;;;;;;6093404;23;20010;-81
2023/12/01 08:09:07;;;;;;;8.82;3.10;;;1.60;93.60;;;;;;6093616;23;20010;-82
2023/12/01 08:11:32;;;;;;;7.32;3.10;;;1.60;93.90;;;;;;6093690;23;20002;-81
2023/12/01 08:13:58;;;;;;;5.78;2.95;;;1.60;93.60;;;;;;6092992;23;20050;-82
2023/12/01 08:16:23;;;;;;;8.15;3.65;;;1.70;93.60;;;;;;6093718;23;20070;-79
2023/12/01 08:18:49;;;;;;;8.85;3.92;;;1.50;93.20;;;;;;6092608;23;20003;-79
2023/12/01 08:21:15;;;;;;;7.55;3.10;;;1.40;93.20;;;;;;6084480;23;20074;-79
2023/12/01 08:23:40;;;;;;;9.00;3.45;;;1.40;93.60;;;;;;6093507;23;20081;-80
2023/12/01 08:26:08;;;;;;;14.05;5.88;;;1.40;93.40;;;;;;6092135;23;20010;-81
2023/12/01 08:28:34;;;;;;;14.68;5.63;;;1.20;93.00;;;;;;6092101;23;20013;-80
2023/12/01 08:31:00;;;;;;;12.70;4.85;;;1.10;93.10;;;;;;6093048;23;20003;-79
2023/12/01 08:33:25;;;;;;;11.10;4.30;;;1.00;93.50;;;;;;6090821;23;20748;-81
2023/12/01 08:35:51;;;;;;;11.23;4.43;;;1.10;93.60;;;;;;6092731;23;20500;-81
2023/12/01 08:38:16;;;;;;;9.60;3.70;;;1.20;93.50;;;;;;6094334;23;20017;-80
2023/12/01 08:40:42;;;;;;;10.55;3.90;;;1.20;93.50;;;;;;6106877;23;20016;-82
2023/12/01 08:43:07;;;;;;;17.33;6.90;;;1.10;93.30;;;;;;6100762;23;20094;-79
2023/12/01 08:45:34;;;;;;;12.70;5.53;;;1.00;92.80;;;;;;6101098;23;20007;-81
2023/12/01 08:48:00;;;;;;;11.63;4.93;;;0.90;93.10;;;;;;6103123;23;20017;-79
2023/12/01 08:50:25;;;;;;;11.07;4.90;;;0.90;93.10;;;;;;6094729;23;20101;-81
2023/12/01 08:52:51;;;;;;;12.48;4.90;;;1.00;93.40;;;;;;6094879;23;20002;-81
2023/12/01 08:55:16;;;;;;;11.68;4.60;;;0.90;93.10;;;;;;6092051;23;20022;-80
2023/12/01 08:57:42;;;;;;;11.05;5.18;;;0.90;93.00;;;;;;6091884;23;20023;-82
2023/12/01 09:00:08;;;;;;;9.23;3.75;;;0.90;93.20;;;;;;6094483;23;20026;-79
2023/12/01 09:02:34;;;;;;;7.80;3.30;;;1.00;93.30;;;;;;6094340;23;19999;-81
2023/12/01 09:05:00;;;;;;;12.63;5.03;;;1.10;93.30;;;;;;6092051;23;20009;-80
2023/12/01 09:07:25;;;;;;;8.55;4.32;;;1.10;92.90;;;;;;6092179;23;20332;-81
2023/12/01 09:09:51;;;;;;;10.88;4.13;;;1.10;92.90;;;;;;6092280;23;20066;-81
2023/12/01 09:12:16;;;;;;;9.13;3.40;;;1.00;92.90;;;;;;6095165;23;20006;-79
2023/12/01 09:14:42;;;;;;;6.65;3.00;;;1.10;93.10;;;;;;6091426;23;20006;-82
2023/12/01 09:17:07;;;;;;;6.88;3.20;;;1.20;93.20;;;;;;6092677;23;20006;-80
2023/12/01 09:19:33;;;;;;;6.22;2.78;;;1.40;93.10;;;;;;6094684;23;20003;-81
2023/12/01 09:21:58;;;;;;;6.68;3.17;;;1.40;92.90;;;;;;6091139;23;20006;-78
2023/12/01 09:24:24;;;;;;;5.80;3.15;;;1.50;92.80;;;;;;6093016;23;20002;-79
2023/12/01 09:26:50;;;;;;;7.20;3.00;;;1.60;92.80;;;;;;6094863;23;20035;-80
2023/12/01 09:29:15;;;;;;;6.65;3.00;;;1.60;92.60;;;;;;6093525;23;20436;-79
2023/12/01 09:31:48;;;;;;;8.55;4.30;;;1.60;92.50;;;;;;6096760;23;20006;-81
2023/12/01 09:34:13;;;;;;;9.48;4.80;;;1.50;92.40;;;;;;6096467;23;20013;-79
2023/12/01 09:36:42;;;;;;;8.75;3.45;;;1.40;92.40;;;;;;6096286;23;20002;-81
2023/12/01 09:39:08;;;;;;;6.93;3.10;;;1.40;92.60;;;;;;6095930;23;20005;-81
2023/12/01 09:41:35;;;;;;;8.90;3.40;;;1.50;92.80;;;;;;6095512;23;20083;-81
2023/12/01 09:44:01;;;;;;;5.60;2.75;;;1.40;92.70;;;;;;6096480;23;19998;-79
2023/12/01 09:46:35;;;;;;;8.65;3.10;;;1.60;92.90;;;;;;6093419;23;20002;-81
2023/12/01 09:49:05;;;;;;;10.18;4.10;;;1.60;92.50;;;;;;6096906;23;20014;-80
2023/12/01 09:51:36;;;;;;;7.72;3.53;;;1.40;92.20;;;;;;6094839;23;20006;-80
2023/12/01 09:54:02;;;;;;;9.82;3.97;;;1.40;92.50;;;;;;6097425;23;20194;-80
2023/12/01 09:56:28;;;;;;;10.35;4.18;;;1.40;92.40;;;;;;6125563;23;19998;-78
2023/12/01 09:58:57;;;;;;;9.50;3.88;;;1.30;92.40;;;;;;6099843;23;20028;-79
2023/12/01 10:01:24;;;;;;;8.25;3.20;;;1.40;92.60;;;;;;6100544;23;20006;-80
2023/12/01 10:03:50;;;;;;;7.47;2.90;;;1.50;92.60;;;;;;6099855;23;20077;-80
2023/12/01 10:06:16;;;;;;;6.53;2.50;;;1.60;92.60;;;;;;6100604;23;20005;-80
2023/12/01 10:08:42;;;;;;;5.78;2.53;;;1.80;92.40;;;;;;6100494;23;19998;-79
2023/12/01 10:11:21;;;;;;;8.65;2.60;;;1.90;92.20;;;;;;6100402;23;20470;-80
2023/12/01 10:13:49;;;;;;;6.20;2.58;;;2.00;92.00;;;;;;6126338;23;20522;-80
2023/12/01 10:16:16;;;;;;;4.13;2.33;;;2.00;91.90;;;;;;6097130;23;19998;-79
2023/12/01 10:19:01;;;;;;;7.53;3.33;;;1.90;91.80;;;;;;6124835;23;20340;-78
2023/12/01 10:21:47;;;;;;;8.50;3.55;;;1.80;91.60;;;;;;6124354;23;20105;-80
2023/12/01 10:24:20;;;;;;;9.38;3.58;;;1.70;91.80;;;;;;6125255;23;20477;-77
2023/12/01 10:26:47;;;;;;;6.70;3.40;;;1.70;92.00;;;;;;6099143;23;20202;-79
2023/12/01 10:29:28;;;;;;;7.57;2.97;;;1.80;92.00;;;;;;6124944;23;20032;-78
2023/12/01 10:31:57;;;;;;;8.88;2.97;;;1.80;91.80;;;;;;6098644;23;20086;-80
2023/12/01 10:34:23;;;;;;;6.63;2.50;;;1.80;92.00;;;;;;6098694;23;20006;-80
2023/12/01 10:36:52;;;;;;;5.93;2.78;;;2.00;92.10;;;;;;6098696;23;20002;-78
2023/12/01 10:39:20;;;;;;;6.32;2.90;;;2.00;91.90;;;;;;6098261;23;20100;-81
2023/12/01 10:41:47;;;;;;;5.70;2.40;;;1.90;91.80;;;;;;6098481;23;20001;-80
2023/12/01 10:44:18;;;;;;;6.35;3.30;;;2.10;91.90;;;;;;6098611;23;20017;-80
2023/12/01 10:46:47;;;;;;;7.95;3.70;;;2.00;91.70;;;;;;6098796;23;20002;-79
2023/12/01 10:49:17;;;;;;;13.75;4.40;;;1.80;91.50;;;;;;6125222;23;20061;-79
2023/12/01 10:51:52;;;;;;;8.18;3.30;;;1.60;91.60;;;;;;6099648;23;20404;-80
2023/12/01 10:54:21;;;;;;;6.53;2.95;;;1.70;92.10;;;;;;6094139;23;20017;-79
2023/12/01 10:57:11;;;;;;;5.78;2.78;;;1.80;92.20;;;;;;6096024;23;20446;-80
2023/12/01 10:59:38;;;;;;;7.90;3.40;;;1.90;92.10;;;;;;6095453;23;20010;-80
2023/12/01 11:02:21;;;;;;;6.40;2.45;;;1.90;91.90;;;;;;6096047;23;20006;-79
2023/12/01 11:04:48;;;;;;;6.95;2.65;;;1.80;91.80;;;;;;6093985;23;20012;-81
2023/12/01 11:07:29;;;;;;;6.18;2.90;;;1.80;91.90;;;;;;6094138;23;20006;-81
2023/12/01 11:10:22;;;;;;;5.13;2.23;;;1.90;91.90;;;;;;6094753;23;20018;-79
2023/12/01 11:13:25;;;;;;;5.95;2.50;;;2.00;91.90;;;;;;6091747;23;20724;-81
2023/12/01 11:15:54;;;;;;;9.50;3.75;;;2.00;91.70;;;;;;6093664;23;20006;-81
2023/12/01 11:18:20;;;;;;;8.23;3.83;;;1.80;91.20;;;;;;6093220;23;20008;-80
2023/12/01 11:20:48;;;;;;;7.18;3.75;;;1.70;91.50;;;;;;6093278;23;20009;-81
2023/12/01 11:23:19;;;;;;;9.10;3.33;;;1.70;91.70;;;;;;6093489;23;20006;-81
2023/12/01 11:25:48;;;;;;;7.47;2.90;;;1.70;91.80;;;;;;6095300;23;20002;-81
2023/12/01 11:28:23;;;;;;;7.63;3.33;;;1.70;91.70;;;;;;6093930;23;20002;-81
2023/12/01 11:31:18;;;;;;;7.43;3.17;;;1.70;91.80;;;;;;6094321;23;20018;-81
2023/12/01 11:33:57;;;;;;;9.55;3.83;;;1.70;92.00;;;;;;6108322;23;20006;-81
2023/12/01 11:36:30;;;;;;;7.45;3.50;;;1.70;91.70;;;;;;6094554;23;19998;-81
2023/12/01 11:39:16;;;;;;;7.10;3.15;;;1.70;91.70;;;;;;6095266;23;20007;-79
2023/12/01 11:41:41;;;;;;;6.85;3.10;;;1.70;91.60;;;;;;6093633;23;20457;-79
2023/12/01 11:44:14;;;;;;;7.25;2.85;;;1.70;91.60;;;;;;6094355;23;20003;-80
2023/12/01 11:46:40;;;;;;;7.97;3.05;;;1.70;91.70;;;;;;6092584;23;20029;-79
2023/12/01 11:49:06;;;;;;;5.45;2.42;;;1.80;91.60;;;;;;6094574;23;20401;-81
2023/12/01 11:51:33;;;;;;;5.45;2.40;;;1.80;91.60;;;;;;6093515;23;20009;-78
2023/12/01 11:54:00;;;;;;;8.48;3.70;;;1.90;91.60;;;;;;6096615;23;19998;-81
2023/12/01 11:56:26;;;;;;;9.80;4.28;;;1.80;91.20;;;;;;6097637;23;20006;-79
2023/12/01 11:58:52;;;;;;;9.43;3.80;;;1.50;91.00;;;;;;6124160;23;19998;-81
2023/12/01 12:01:19;;;;;;;9.73;3.55;;;1.40;91.30;;;;;;6124076;23;20060;-80
2023/12/01 12:03:54;;;;;;;7.30;2.97;;;1.30;91.60;;;;;;6098010;23;20006;-80
2023/12/01 12:06:21;;;;;;;9.75;3.70;;;1.30;91.70;;;;;;6097536;23;20009;-81
2023/12/01 12:08:48;;;;;;;7.03;3.33;;;1.30;91.80;;;;;;6122872;23;20069;-79
2023/12/01 12:11:15;;;;;;;9.10;3.22;;;1.40;91.90;;;;;;6096652;23;20085;-81
2023/12/01 12:13:41;;;;;;;7.68;3.50;;;1.50;91.90;;;;;;6123129;23;20009;-78
2023/12/01 12:16:07;;;;;;;6.78;2.92;;;1.50;91.70;;;;;;6124007;23;20021;-81
2023/12/01 12:18:34;;;;;;;5.70;2.80;;;1.60;91.60;;;;;;6097509;23;20013;-81
2023/12/01 12:21:04;;;;;;;5.80;2.45;;;1.60;91.60;;;;;;6124276;23;20066;-82
2023/12/01 12:23:30;;;;;;;7.63;2.85;;;1.60;91.50;;;;;;6098610;23;20006;-79
2023/12/01 12:26:16;;;;;;;7.93;3.42;;;1.60;91.40;;;;;;6096780;23;20006;-80
2023/12/01 12:28:45;;;;;;;7.72;3.30;;;1.50;91.40;;;;;;6124841;23;20025;-81
2023/12/01 12:31:11;;;;;;;8.55;3.30;;;1.50;91.40;;;;;;6098049;23;20033;-81
2023/12/01 12:33:37;;;;;;;9.90;3.97;;;1.50;91.40;;;;;;6097079;23;20060;-81
2023/12/01 12:36:04;;;;;;;6.30;2.92;;;1.50;91.50;;;;;;6097085;23;20013;-82
2023/12/01 12:38:30;;;;;;;8.02;3.30;;;1.50;91.40;;;;;;6101438;23;20002;-77
2023/12/01 12:40:55;;;;;;;7.30;3.10;;;1.60;91.40;;;;;;6127010;23;20021;-80
2023/12/01 12:43:22;;;;;;;8.70;3.80;;;1.60;91.40;;;;;;6125589;23;20006;-81
2023/12/01 12:45:51;;;;;;;11.85;4.38;;;1.50;91.30;;;;;;6125172;23;20012;-81
2023/12/01 12:48:17;;;;;;;9.05;3.88;;;1.30;91.20;;;;;;6101215;23;20530;-82
2023/12/01 12:50:45;;;;;;;9.25;4.15;;;1.40;91.50;;;;;;6101546;23;20006;-81
2023/12/01 12:53:11;;;;;;;11.15;4.75;;;1.50;91.50;;;;;;6101683;23;20010;-82
2023/12/01 12:55:36;;;;;;;9.80;3.67;;;1.40;91.50;;;;;;6096116;23;20015;-81
2023/12/01 12:58:02;;;;;;;9.35;4.22;;;1.40;91.50;;;;;;6096756;23;20025;-80